Time;durP1;ratioP1;P1;durP2;ratioP2;P2;SDS_P1;SDS_P2;PMS_P1;PMS_P2;Temp;Humidity;BMP_temperature;BMP_pressure;BME280_temperature;BME280_humidity;BME280_pressure;Samples;Min_cycle;Max_cycle;Signal;HPM_P1;HPM_P2
2022/01/22 00:00:36;;;;;;;50.25;34.75;;;22.00;99.90;;;;;;4207283;28;20094;-65
2022/01/22 00:02:41;;;;;;;48.05;34.63;;;22.10;99.90;;;;;;4207990;28;20101;-66
2022/01/22 00:04:45;;;;;;;45.08;34.03;;;22.20;99.90;;;;;;4207166;28;20048;-66
2022/01/22 00:06:51;;;;;;;45.75;34.38;;;22.30;99.90;;;;;;4208534;28;20446;-63
2022/01/22 00:09:15;;;;;;;51.13;37.30;;;22.30;99.90;;;;;;4207000;28;20052;-64
2022/01/22 00:11:19;;;;;;;95.85;40.65;;;22.30;99.90;;;;;;4205909;28;20044;-64
2022/01/22 00:15:42;;;;;;;67.75;39.15;;;22.30;99.90;;;;;;4206753;28;20449;-64
2022/01/22 00:17:47;;;;;;;54.90;36.65;;;22.40;99.90;;;;;;4207746;28;20040;-64
2022/01/22 00:19:52;;;;;;;54.58;36.10;;;22.30;99.90;;;;;;4207191;28;20062;-65
2022/01/22 00:21:58;;;;;;;64.63;38.25;;;22.30;99.90;;;;;;4206311;28;20113;-65
2022/01/22 00:24:03;;;;;;;59.10;41.03;;;22.30;99.90;;;;;;4205110;28;20052;-64
2022/01/22 00:26:09;;;;;;;60.78;42.92;;;22.30;99.90;;;;;;4206813;28;20055;-64
2022/01/22 00:28:13;;;;;;;60.72;42.65;;;22.20;99.90;;;;;;4188012;28;20087;-64
2022/01/22 00:30:20;;;;;;;60.83;41.42;;;22.20;99.90;;;;;;4206112;28;20150;-64
2022/01/22 00:32:24;;;;;;;59.45;39.38;;;22.30;99.90;;;;;;4206824;28;20108;-64
2022/01/22 00:34:29;;;;;;;60.60;42.75;;;22.30;99.90;;;;;;4208167;28;20074;-65
2022/01/22 00:36:33;;;;;;;55.40;42.03;;;22.30;99.90;;;;;;4188743;28;20044;-64
2022/01/22 00:38:37;;;;;;;56.15;40.75;;;22.30;99.90;;;;;;4205976;28;20044;-64
2022/01/22 00:40:49;;;;;;;61.55;39.35;;;22.20;99.90;;;;;;4205674;28;20456;-65
2022/01/22 00:42:53;;;;;;;56.80;39.38;;;22.20;99.90;;;;;;4187970;28;20531;-64
2022/01/22 00:44:58;;;;;;;56.63;40.47;;;22.20;99.90;;;;;;4202970;28;20566;-63
2022/01/22 00:47:02;;;;;;;55.83;40.47;;;21.90;99.90;;;;;;4205753;28;20036;-65
2022/01/22 00:49:07;;;;;;;56.03;41.30;;;21.90;99.90;;;;;;4206233;28;20072;-64
2022/01/22 00:51:11;;;;;;;62.03;40.75;;;22.00;99.90;;;;;;4205074;28;20036;-63
2022/01/22 00:53:17;;;;;;;68.47;45.78;;;22.10;99.90;;;;;;4206549;28;20429;-63
2022/01/22 00:55:21;;;;;;;67.18;46.15;;;22.20;99.90;;;;;;4205552;28;20130;-64
2022/01/22 00:57:25;;;;;;;66.95;46.40;;;22.20;99.90;;;;;;4203733;28;20127;-65
2022/01/22 00:59:31;;;;;;;68.15;46.40;;;22.20;99.90;;;;;;4205100;28;20093;-64
2022/01/22 01:01:35;;;;;;;70.32;48.38;;;22.10;99.90;;;;;;4205389;28;20039;-65
2022/01/22 01:03:40;;;;;;;66.25;46.13;;;22.10;99.90;;;;;;4205109;28;20048;-65
2022/01/22 01:05:45;;;;;;;73.05;50.08;;;21.90;99.90;;;;;;4205681;28;20177;-67
2022/01/22 01:07:50;;;;;;;78.95;47.50;;;21.90;99.90;;;;;;4202724;28;20044;-66
2022/01/22 01:09:56;;;;;;;67.35;45.45;;;22.10;99.90;;;;;;4203851;28;20040;-67
2022/01/22 01:12:05;;;;;;;66.55;44.95;;;22.20;99.90;;;;;;4202785;28;20538;-65
2022/01/22 01:14:16;;;;;;;62.30;44.47;;;22.20;99.90;;;;;;4186036;28;20820;-68
2022/01/22 01:16:42;;;;;;;62.60;43.20;;;22.20;99.90;;;;;;4185704;28;20107;-67
2022/01/22 01:32:38;;;;;;;59.63;43.53;;;21.90;99.90;;;;;;4186066;28;20136;-64
2022/01/22 01:34:44;;;;;;;63.05;43.30;;;21.90;99.90;;;;;;4201994;28;20407;-62
2022/01/22 01:36:51;;;;;;;59.47;43.20;;;21.90;99.90;;;;;;4204852;28;20048;-63
2022/01/22 01:38:59;;;;;;;64.00;44.13;;;22.00;99.90;;;;;;4203355;28;20728;-66
2022/01/22 01:41:15;;;;;;;61.13;43.88;;;22.10;99.90;;;;;;4201930;28;20044;-65
2022/01/22 01:43:26;;;;;;;60.75;43.50;;;22.10;99.90;;;;;;4185277;28;20052;-64
2022/01/22 01:45:51;;;;;;;58.53;42.80;;;22.10;99.90;;;;;;4204541;28;20040;-65
2022/01/22 01:47:58;;;;;;;57.47;42.83;;;22.10;99.90;;;;;;4187644;28;20474;-64
2022/01/22 01:50:05;;;;;;;56.00;42.22;;;22.20;99.90;;;;;;4191400;28;20109;-66
2022/01/22 01:52:17;;;;;;;62.15;43.60;;;22.20;99.90;;;;;;4209190;28;20049;-67
2022/01/22 01:59:09;;;;;;;55.03;39.75;;;22.00;99.90;;;;;;4208633;28;20040;-66
2022/01/22 02:01:45;;;;;;;53.60;40.10;;;22.10;99.90;;;;;;4192330;28;20029;-73
2022/01/22 02:04:26;;;;;;;56.58;41.30;;;22.10;99.90;;;;;;4187015;28;20041;-71
2022/01/22 02:06:49;;;;;;;56.50;41.22;;;22.40;99.90;;;;;;4207419;28;20036;-72
2022/01/22 02:09:00;;;;;;;51.58;40.08;;;22.40;99.90;;;;;;4166960;28;20079;-73
2022/01/22 02:11:29;;;;;;;57.35;40.63;;;22.40;99.90;;;;;;4195251;28;20044;-73
2022/01/22 02:24:06;;;;;;;55.75;41.22;;;22.60;99.90;;;;;;4192962;28;20063;-72
2022/01/22 02:26:40;;;;;;;55.78;41.15;;;22.70;99.90;;;;;;4180447;28;20060;-74
2022/01/22 02:29:05;;;;;;;54.70;40.63;;;22.70;99.90;;;;;;4167616;28;20047;-72
2022/01/22 02:31:43;;;;;;;56.03;38.88;;;22.80;99.90;;;;;;4191359;28;20036;-75
2022/01/22 02:36:38;;;;;;;56.90;41.42;;;23.00;99.90;;;;;;4189698;28;20070;-72
2022/01/22 02:39:04;;;;;;;59.70;40.60;;;23.10;99.90;;;;;;4170784;28;20115;-73
2022/01/22 02:41:23;;;;;;;51.13;40.28;;;23.20;99.90;;;;;;4173641;28;20767;-75
2022/01/22 02:43:33;;;;;;;56.95;41.05;;;23.30;99.90;;;;;;4189965;28;20040;-76
2022/01/22 02:45:58;;;;;;;60.30;41.92;;;23.40;99.90;;;;;;4176928;28;20053;-75
2022/01/22 02:48:07;;;;;;;55.05;41.83;;;23.50;99.90;;;;;;4175251;28;20383;-75
2022/01/22 02:50:13;;;;;;;56.88;41.88;;;23.40;99.90;;;;;;4175477;28;20051;-71
2022/01/22 02:52:23;;;;;;;55.60;40.95;;;23.50;99.90;;;;;;4173960;28;20049;-71
2022/01/22 02:54:33;;;;;;;51.20;40.35;;;23.50;99.90;;;;;;4174145;28;21109;-70
2022/01/22 02:56:48;;;;;;;58.63;40.58;;;23.50;99.90;;;;;;4189516;28;20103;-70
2022/01/22 02:58:58;;;;;;;59.05;43.47;;;23.60;99.90;;;;;;4192594;28;20048;-76
2022/01/22 03:01:07;;;;;;;79.80;43.15;;;23.60;99.90;;;;;;4176418;28;20108;-74
2022/01/22 03:03:15;;;;;;;74.57;43.65;;;23.60;99.90;;;;;;4175034;28;20205;-69
2022/01/22 03:05:22;;;;;;;75.82;42.58;;;23.60;99.90;;;;;;4170624;28;20043;-71
2022/01/22 03:07:30;;;;;;;91.53;42.88;;;23.80;99.90;;;;;;4175827;28;20064;-75
2022/01/22 03:09:44;;;;;;;63.90;38.90;;;24.00;99.90;;;;;;4190792;28;20071;-73
2022/01/22 03:16:57;;;;;;;54.10;37.25;;;24.30;99.70;;;;;;4169465;28;20458;-75
2022/01/22 03:19:29;;;;;;;53.05;35.92;;;24.40;99.50;;;;;;4176316;28;20184;-74
2022/01/22 03:21:54;;;;;;;52.78;36.72;;;24.50;99.40;;;;;;4173599;28;20049;-75
2022/01/22 03:28:54;;;;;;;50.22;36.08;;;24.70;98.70;;;;;;4181723;28;20065;-74
2022/01/22 03:31:07;;;;;;;47.05;35.47;;;24.60;98.60;;;;;;4160786;28;20033;-76
2022/01/22 03:33:15;;;;;;;51.83;34.67;;;24.50;98.90;;;;;;4182582;28;20685;-73
2022/01/22 03:35:44;;;;;;;48.53;36.45;;;24.60;98.80;;;;;;4190012;28;20593;-76
2022/01/22 03:38:04;;;;;;;46.08;33.80;;;24.60;98.60;;;;;;4136819;28;20066;-75
2022/01/22 03:40:33;;;;;;;54.85;38.08;;;24.60;98.30;;;;;;4185544;28;20048;-74
2022/01/22 03:43:02;;;;;;;45.90;36.63;;;24.60;98.30;;;;;;4143834;28;20061;-76
2022/01/22 03:45:11;;;;;;;48.30;35.55;;;24.60;98.50;;;;;;4137278;28;20050;-78
2022/01/22 03:47:31;;;;;;;44.05;33.45;;;24.70;98.50;;;;;;4155986;28;20054;-73
2022/01/22 03:49:50;;;;;;;46.40;32.08;;;24.80;98.60;;;;;;4156497;28;21167;-72
2022/01/22 03:52:17;;;;;;;50.03;35.53;;;24.90;98.40;;;;;;4140975;28;20050;-74
2022/01/22 03:54:23;;;;;;;49.65;34.97;;;24.90;98.30;;;;;;4140612;28;20109;-73
2022/01/22 03:56:39;;;;;;;45.40;32.60;;;25.00;98.40;;;;;;4093470;28;20043;-71
2022/01/22 03:59:01;;;;;;;47.97;32.00;;;25.00;98.40;;;;;;4092539;28;20047;-73
2022/01/22 04:03:40;;;;;;;47.05;31.65;;;25.20;98.20;;;;;;4130380;28;20073;-72
2022/01/22 04:08:18;;;;;;;43.97;31.13;;;25.30;97.80;;;;;;4145018;28;20056;-71
2022/01/22 04:10:25;;;;;;;43.20;30.08;;;25.40;97.80;;;;;;4128517;28;20050;-72
2022/01/22 04:14:47;;;;;;;49.80;31.20;;;25.50;97.40;;;;;;4128827;28;20825;-74
2022/01/22 04:26:21;;;;;;;42.22;27.00;;;25.70;97.30;;;;;;4174716;28;20051;-73
2022/01/22 04:28:28;;;;;;;37.72;28.42;;;25.70;97.20;;;;;;4179616;28;20049;-74
2022/01/22 04:30:32;;;;;;;41.00;28.65;;;25.80;96.60;;;;;;4170225;28;20041;-74
2022/01/22 04:32:36;;;;;;;39.03;27.65;;;25.80;96.60;;;;;;4170232;28;20056;-75
2022/01/22 04:34:41;;;;;;;33.08;26.70;;;25.80;96.50;;;;;;4179228;28;20206;-74
2022/01/22 04:36:47;;;;;;;36.17;26.50;;;25.80;96.40;;;;;;4169460;28;20044;-75
2022/01/22 04:38:52;;;;;;;36.72;26.25;;;25.90;96.50;;;;;;4180847;28;20051;-73
2022/01/22 04:40:58;;;;;;;33.70;25.40;;;26.00;96.30;;;;;;4172425;28;20507;-75
2022/01/22 04:43:04;;;;;;;33.75;26.27;;;26.10;96.30;;;;;;4171838;28;20052;-69
2022/01/22 04:47:29;;;;;;;41.20;24.63;;;26.20;95.70;;;;;;4180650;28;20578;-73
2022/01/22 04:56:25;;;;;;;41.15;29.27;;;26.40;94.90;;;;;;4170196;28;20074;-72
2022/01/22 04:58:30;;;;;;;34.65;26.23;;;26.40;95.00;;;;;;4172949;28;20123;-71
2022/01/22 05:00:37;;;;;;;39.95;25.15;;;26.40;94.60;;;;;;4196721;28;20052;-70
2022/01/22 05:03:04;;;;;;;53.78;39.60;;;26.40;94.70;;;;;;4179626;28;20143;-71
2022/01/22 05:05:30;;;;;;;36.38;25.27;;;26.50;94.90;;;;;;4179704;28;20796;-73
2022/01/22 05:07:55;;;;;;;36.22;26.92;;;26.50;93.80;;;;;;4178821;28;20139;-73
2022/01/22 05:10:11;;;;;;;33.28;22.58;;;26.50;94.30;;;;;;4179591;28;20426;-74
2022/01/22 05:12:17;;;;;;;26.30;21.73;;;26.60;94.30;;;;;;4170556;28;20036;-74
2022/01/22 05:14:23;;;;;;;32.90;23.70;;;26.70;94.30;;;;;;4194123;28;20098;-75
2022/01/22 05:16:32;;;;;;;33.60;22.98;;;26.80;94.30;;;;;;4171277;28;20132;-76
2022/01/22 05:18:44;;;;;;;32.70;22.27;;;26.80;94.10;;;;;;4172674;28;20052;-76
2022/01/22 06:43:38;;;;;;;23.75;16.67;;;28.20;91.00;;;;;;4198539;28;20036;-70
2022/01/22 06:45:54;;;;;;;30.00;16.30;;;28.30;90.80;;;;;;4180783;28;20070;-70
2022/01/22 06:47:58;;;;;;;24.10;16.58;;;28.40;90.60;;;;;;4180602;28;20048;-70
2022/01/22 06:50:08;;;;;;;25.25;16.10;;;28.40;90.50;;;;;;4180453;28;20650;-70
2022/01/22 06:52:25;;;;;;;20.52;16.20;;;28.50;90.50;;;;;;4181256;28;20044;-69
2022/01/22 06:54:36;;;;;;;22.20;15.57;;;28.40;90.40;;;;;;4180470;28;20064;-72
2022/01/22 06:56:41;;;;;;;22.52;16.17;;;28.40;90.70;;;;;;4196712;28;20106;-71
2022/01/22 06:58:48;;;;;;;18.15;15.77;;;28.40;90.70;;;;;;4180352;28;20078;-72
2022/01/22 07:00:53;;;;;;;22.83;15.85;;;28.40;90.80;;;;;;4179091;28;20143;-71
2022/01/22 07:03:01;;;;;;;21.35;16.40;;;28.50;90.60;;;;;;4178806;28;20086;-72
2022/01/22 07:05:06;;;;;;;22.60;17.15;;;28.40;90.70;;;;;;4179266;28;20047;-72
2022/01/22 07:07:23;;;;;;;27.90;16.45;;;28.40;90.70;;;;;;4197541;28;20040;-73
2022/01/22 07:09:28;;;;;;;19.45;15.90;;;28.50;90.50;;;;;;4178829;28;20437;-72
2022/01/22 07:11:33;;;;;;;23.75;15.73;;;28.50;90.10;;;;;;4197431;28;20742;-73
2022/01/22 07:13:38;;;;;;;19.52;15.13;;;28.50;90.00;;;;;;4180229;28;20048;-72
2022/01/22 07:15:43;;;;;;;21.88;14.57;;;28.70;90.00;;;;;;4178847;28;20146;-69
2022/01/22 07:17:55;;;;;;;19.90;14.07;;;28.60;89.70;;;;;;4178435;28;20123;-72
2022/01/22 07:20:00;;;;;;;20.25;14.85;;;28.70;88.70;;;;;;4179898;28;20040;-70
2022/01/22 07:24:41;;;;;;;18.25;15.70;;;28.80;89.60;;;;;;4179971;28;20049;-71
2022/01/22 07:26:47;;;;;;;23.80;15.73;;;28.70;87.60;;;;;;4178938;28;20048;-71
2022/01/22 07:28:56;;;;;;;23.10;16.75;;;28.60;88.40;;;;;;4179297;28;20394;-73
2022/01/22 07:31:01;;;;;;;23.23;17.23;;;28.50;88.50;;;;;;4195828;28;20056;-71
2022/01/22 07:33:07;;;;;;;21.90;15.68;;;28.50;89.00;;;;;;4198501;28;21761;-71
2022/01/22 07:35:16;;;;;;;19.55;16.40;;;28.60;89.10;;;;;;4196246;28;20065;-72
2022/01/22 07:37:27;;;;;;;18.95;15.38;;;28.60;88.50;;;;;;4178807;28;20733;-70
2022/01/22 07:39:39;;;;;;;26.40;16.13;;;28.70;88.80;;;;;;4197195;28;20456;-73
2022/01/22 07:41:56;;;;;;;18.52;14.32;;;28.70;89.50;;;;;;4197632;28;20139;-71
2022/01/22 07:44:21;;;;;;;16.92;13.57;;;28.60;89.50;;;;;;4196512;28;20040;-72
2022/01/22 07:46:27;;;;;;;25.08;14.75;;;28.60;90.10;;;;;;4178870;28;20086;-72
2022/01/22 07:48:37;;;;;;;17.25;13.57;;;28.70;89.90;;;;;;4178851;28;20051;-73
2022/01/22 07:51:00;;;;;;;19.83;14.32;;;28.70;90.00;;;;;;4197608;28;20040;-71
2022/01/22 07:53:05;;;;;;;22.70;15.38;;;28.70;90.30;;;;;;4178921;28;20044;-72
2022/01/22 07:55:09;;;;;;;21.73;15.73;;;28.70;90.00;;;;;;4179111;28;20045;-72
2022/01/22 07:57:14;;;;;;;16.90;14.43;;;28.60;90.30;;;;;;4197161;28;21038;-71
2022/01/22 07:59:18;;;;;;;18.45;15.48;;;28.60;90.10;;;;;;4180018;28;20076;-72
2022/01/22 08:01:26;;;;;;;20.17;13.65;;;28.60;90.30;;;;;;4181003;28;20048;-70
2022/01/22 08:03:43;;;;;;;18.90;14.38;;;28.60;90.30;;;;;;4198957;28;20071;-72
2022/01/22 08:06:00;;;;;;;18.48;15.05;;;28.60;90.30;;;;;;4196517;28;21241;-73
2022/01/22 08:08:17;;;;;;;19.80;15.75;;;28.60;90.30;;;;;;4197804;28;20567;-69
2022/01/22 08:10:35;;;;;;;18.95;15.07;;;28.60;90.20;;;;;;4198646;28;20055;-74
2022/01/22 08:12:41;;;;;;;35.38;15.68;;;28.60;90.20;;;;;;4178447;28;20127;-71
2022/01/22 08:14:48;;;;;;;23.23;15.75;;;28.50;90.50;;;;;;4177160;28;20056;-71
2022/01/22 08:16:53;;;;;;;30.05;15.48;;;28.50;90.10;;;;;;4178041;28;20069;-69
2022/01/22 08:19:04;;;;;;;30.05;15.57;;;28.50;89.20;;;;;;4179471;28;20065;-70
2022/01/22 08:21:08;;;;;;;35.67;16.95;;;28.40;90.10;;;;;;4178914;28;20055;-73
2022/01/22 08:23:25;;;;;;;20.83;15.75;;;28.40;90.30;;;;;;4196797;28;20586;-71
2022/01/22 08:25:46;;;;;;;24.05;15.75;;;28.40;90.20;;;;;;4195739;28;20097;-72
2022/01/22 08:30:12;;;;;;;24.27;15.27;;;28.40;90.20;;;;;;4178016;28;20048;-72
2022/01/22 08:36:39;;;;;;;20.40;14.43;;;28.30;90.10;;;;;;4193605;28;20051;-72
2022/01/22 08:38:44;;;;;;;19.90;14.40;;;28.40;90.20;;;;;;4177770;28;20033;-72
2022/01/22 08:40:50;;;;;;;18.10;14.50;;;28.40;90.30;;;;;;4196278;28;20188;-71
2022/01/22 08:42:55;;;;;;;19.98;14.23;;;28.50;90.30;;;;;;4178515;28;20086;-73
2022/01/22 08:45:00;;;;;;;19.10;14.68;;;28.60;90.10;;;;;;4178906;28;20052;-72
2022/01/22 08:47:07;;;;;;;25.10;17.38;;;28.60;89.80;;;;;;4178898;28;20049;-72
2022/01/22 08:49:14;;;;;;;19.30;15.35;;;28.60;89.60;;;;;;4179214;28;20065;-72
2022/01/22 08:51:27;;;;;;;21.92;14.50;;;28.60;88.20;;;;;;4196875;28;20052;-72
2022/01/22 08:53:32;;;;;;;16.38;12.60;;;28.60;88.90;;;;;;4178803;28;20037;-71
2022/01/22 08:55:36;;;;;;;15.48;12.23;;;28.60;89.00;;;;;;4178426;28;20079;-72
2022/01/22 08:57:41;;;;;;;17.85;14.30;;;28.60;89.70;;;;;;4179557;28;20068;-71
2022/01/22 08:59:50;;;;;;;22.75;16.05;;;28.60;89.20;;;;;;4179049;28;20048;-70
2022/01/22 09:01:55;;;;;;;22.02;16.63;;;28.70;89.70;;;;;;4178245;28;20048;-70
2022/01/22 09:04:13;;;;;;;23.27;16.08;;;28.80;89.50;;;;;;4196112;28;20050;-69
2022/01/22 09:06:37;;;;;;;19.00;13.38;;;28.90;89.10;;;;;;4195300;28;20494;-72
2022/01/22 09:08:53;;;;;;;20.40;17.65;;;28.90;88.60;;;;;;4178276;28;20053;-71
2022/01/22 09:11:10;;;;;;;22.70;17.42;;;28.90;88.60;;;;;;4177322;28;20068;-71
2022/01/22 09:13:34;;;;;;;17.48;13.25;;;28.90;88.60;;;;;;4195808;28;20167;-71
2022/01/22 09:15:43;;;;;;;21.63;13.85;;;28.90;88.30;;;;;;4177134;28;20044;-69
2022/01/22 09:17:48;;;;;;;23.27;20.05;;;28.90;88.40;;;;;;4178057;28;20048;-68
2022/01/22 09:19:57;;;;;;;23.58;17.98;;;28.80;87.90;;;;;;4178113;28;20086;-72
2022/01/22 09:22:06;;;;;;;20.55;16.27;;;28.80;88.00;;;;;;4198530;28;20075;-72
2022/01/22 09:24:12;;;;;;;19.98;15.95;;;28.70;87.80;;;;;;4189089;28;20538;-68
2022/01/22 09:26:19;;;;;;;27.25;19.42;;;28.70;88.70;;;;;;4189098;28;20083;-71
2022/01/22 09:28:25;;;;;;;21.73;17.45;;;28.70;89.20;;;;;;4190166;28;20109;-70
2022/01/22 09:30:34;;;;;;;21.42;16.45;;;28.70;88.70;;;;;;4194563;28;20048;-72
2022/01/22 09:32:38;;;;;;;31.95;19.83;;;28.70;87.90;;;;;;4192821;28;20162;-73
2022/01/22 09:34:59;;;;;;;27.75;18.50;;;28.60;88.30;;;;;;4211313;28;20044;-72
2022/01/22 09:37:23;;;;;;;27.00;18.13;;;28.50;88.70;;;;;;4208223;28;20051;-73
2022/01/22 09:39:40;;;;;;;23.92;16.77;;;28.40;89.30;;;;;;4209998;28;20044;-72
2022/01/22 09:42:05;;;;;;;23.40;16.42;;;28.40;88.80;;;;;;4211636;28;20071;-70
2022/01/22 09:44:29;;;;;;;26.20;17.17;;;28.40;89.10;;;;;;4215578;28;20040;-71
2022/01/22 09:46:53;;;;;;;27.70;16.75;;;28.40;89.20;;;;;;4214241;28;20048;-71
2022/01/22 09:49:14;;;;;;;30.95;16.75;;;28.40;89.00;;;;;;4201814;28;20086;-72
2022/01/22 09:51:30;;;;;;;23.08;15.57;;;28.40;88.60;;;;;;4215393;28;20055;-72
2022/01/22 09:53:41;;;;;;;32.60;16.50;;;28.30;88.80;;;;;;4200027;28;20048;-71
2022/01/22 09:55:58;;;;;;;27.17;15.85;;;28.30;89.50;;;;;;4210500;28;20036;-74
2022/01/22 09:58:13;;;;;;;33.88;16.00;;;28.30;89.50;;;;;;4212246;28;20036;-73
2022/01/22 10:00:32;;;;;;;31.10;16.42;;;28.30;89.40;;;;;;4212368;28;20039;-73
2022/01/22 10:02:48;;;;;;;25.27;16.75;;;28.40;89.40;;;;;;4215574;28;20067;-73
2022/01/22 10:05:26;;;;;;;25.52;17.23;;;28.40;89.10;;;;;;4215170;28;20073;-73
2022/01/22 10:07:53;;;;;;;23.92;17.60;;;28.40;89.70;;;;;;4212443;28;20048;-73
2022/01/22 10:10:15;;;;;;;22.52;16.98;;;28.30;90.00;;;;;;4199683;28;20134;-73
2022/01/22 10:12:52;;;;;;;26.95;19.60;;;28.20;90.10;;;;;;4217838;28;20064;-73
2022/01/22 10:15:21;;;;;;;37.28;20.05;;;28.20;90.30;;;;;;4217055;28;20044;-73
2022/01/22 10:17:42;;;;;;;35.90;21.83;;;28.00;90.70;;;;;;4198206;28;20048;-75
2022/01/22 10:19:47;;;;;;;32.20;23.70;;;28.00;90.80;;;;;;4216974;28;20055;-77
2022/01/22 10:21:58;;;;;;;35.70;23.67;;;27.90;91.00;;;;;;4201115;28;20043;-76
2022/01/22 10:24:26;;;;;;;37.13;24.80;;;27.90;91.20;;;;;;4189590;28;20055;-75
2022/01/22 10:26:31;;;;;;;38.35;22.27;;;27.80;91.30;;;;;;4198313;28;20078;-76
2022/01/22 10:28:48;;;;;;;31.63;21.58;;;27.70;91.50;;;;;;4199565;28;20068;-76
2022/01/22 10:30:57;;;;;;;26.73;21.42;;;27.80;91.50;;;;;;4215487;28;20051;-77
2022/01/22 10:33:35;;;;;;;31.67;22.63;;;27.70;91.60;;;;;;4218363;28;20160;-75
2022/01/22 10:35:53;;;;;;;27.75;22.73;;;27.60;91.80;;;;;;4217698;28;20046;-77
2022/01/22 10:38:10;;;;;;;33.60;23.10;;;27.60;91.80;;;;;;4201518;28;20700;-74
2022/01/22 10:40:29;;;;;;;30.70;23.42;;;27.60;91.90;;;;;;4216740;28;20052;-75
2022/01/22 10:42:34;;;;;;;32.80;23.30;;;27.50;92.00;;;;;;4217628;28;20363;-75
2022/01/22 10:44:47;;;;;;;34.00;23.42;;;27.60;92.00;;;;;;4215867;28;20417;-75
2022/01/22 10:47:03;;;;;;;33.90;25.37;;;27.60;91.90;;;;;;4217350;28;20048;-74
2022/01/22 10:49:16;;;;;;;34.85;26.40;;;27.70;91.90;;;;;;4216163;28;20293;-75
2022/01/22 10:51:21;;;;;;;36.72;25.70;;;27.60;92.00;;;;;;4213121;28;20044;-77
2022/01/22 10:53:37;;;;;;;34.17;26.35;;;27.60;92.10;;;;;;4214367;28;20040;-77
2022/01/22 10:56:00;;;;;;;37.63;27.80;;;27.60;92.20;;;;;;4212979;28;20582;-75
2022/01/22 10:58:10;;;;;;;46.50;28.65;;;27.60;92.20;;;;;;4209887;28;20040;-75
2022/01/22 11:00:21;;;;;;;44.55;29.20;;;27.50;92.30;;;;;;4204539;28;20047;-75
2022/01/22 11:02:38;;;;;;;44.95;31.45;;;27.50;92.50;;;;;;4195797;28;20048;-78
2022/01/22 11:04:42;;;;;;;40.78;30.23;;;27.50;92.00;;;;;;4200060;28;20048;-78
2022/01/22 11:07:03;;;;;;;41.25;30.13;;;27.30;92.10;;;;;;4203187;28;20524;-76
2022/01/22 11:09:28;;;;;;;38.38;28.45;;;27.30;92.00;;;;;;4204696;28;20064;-76
2022/01/22 11:11:37;;;;;;;38.72;28.85;;;27.30;92.00;;;;;;4202260;28;20163;-76
2022/01/22 11:13:42;;;;;;;36.22;28.13;;;27.30;92.20;;;;;;4204404;28;20054;-76
2022/01/22 11:15:49;;;;;;;39.45;27.95;;;27.20;92.40;;;;;;4202565;28;20044;-75
2022/01/22 11:17:55;;;;;;;38.42;26.35;;;27.10;92.30;;;;;;4203289;28;20075;-77
2022/01/22 11:20:00;;;;;;;36.05;26.27;;;27.00;92.40;;;;;;4200770;28;21344;-76
2022/01/22 11:22:12;;;;;;;39.67;27.90;;;27.00;92.40;;;;;;4203661;28;20564;-76
2022/01/22 11:24:21;;;;;;;40.05;27.23;;;26.90;92.40;;;;;;4202430;28;20044;-75
2022/01/22 11:26:26;;;;;;;35.75;27.10;;;26.90;92.50;;;;;;4203544;28;20058;-73
2022/01/22 11:28:30;;;;;;;37.22;27.02;;;26.80;92.60;;;;;;4203650;28;20491;-77
2022/01/22 11:30:38;;;;;;;45.45;27.33;;;26.70;92.50;;;;;;4202849;28;20155;-75
2022/01/22 11:33:01;;;;;;;44.97;28.48;;;26.60;93.10;;;;;;4190109;28;20098;-74
2022/01/22 11:35:06;;;;;;;45.92;29.45;;;26.60;93.50;;;;;;4208983;28;20101;-76
2022/01/22 11:37:24;;;;;;;38.03;27.90;;;26.50;93.60;;;;;;4210258;28;20047;-76
2022/01/22 11:39:29;;;;;;;33.80;27.52;;;26.60;93.40;;;;;;4208525;28;20561;-76
2022/01/22 11:41:41;;;;;;;35.85;27.85;;;26.70;93.40;;;;;;4209106;28;20058;-75
2022/01/22 11:44:14;;;;;;;35.80;28.10;;;26.60;93.30;;;;;;4194546;28;20052;-75
2022/01/22 11:46:26;;;;;;;39.35;29.38;;;26.60;93.70;;;;;;4212213;28;20044;-72
2022/01/22 11:48:31;;;;;;;34.40;28.15;;;26.60;93.90;;;;;;4196018;28;20036;-74
2022/01/22 11:50:35;;;;;;;42.40;29.80;;;26.50;93.70;;;;;;4213641;28;20044;-74
2022/01/22 11:52:41;;;;;;;38.40;30.95;;;26.60;93.50;;;;;;4209137;28;20088;-75
2022/01/22 11:55:01;;;;;;;40.05;30.60;;;26.50;93.70;;;;;;4197388;28;20044;-76
2022/01/22 11:57:13;;;;;;;38.40;30.00;;;26.40;93.80;;;;;;4209431;28;20044;-75
2022/01/22 11:59:28;;;;;;;41.30;29.33;;;26.40;94.00;;;;;;4183178;28;20052;-73
2022/01/22 12:01:56;;;;;;;35.90;27.40;;;26.30;94.10;;;;;;4210053;28;20040;-74
2022/01/22 12:04:00;;;;;;;41.33;28.75;;;26.40;94.00;;;;;;4193545;28;20040;-76
2022/01/22 12:06:17;;;;;;;39.50;27.65;;;26.40;94.10;;;;;;4209275;28;20063;-73
2022/01/22 12:08:21;;;;;;;44.40;30.05;;;26.30;94.20;;;;;;4210000;28;20360;-74
2022/01/22 12:10:39;;;;;;;47.15;31.10;;;26.20;95.00;;;;;;4194793;28;20045;-75
2022/01/22 12:14:58;;;;;;;38.10;31.10;;;25.90;95.50;;;;;;4210569;28;21256;-74
2022/01/22 12:17:05;;;;;;;42.22;30.98;;;25.80;95.90;;;;;;4212669;28;20070;-76
2022/01/22 12:19:35;;;;;;;43.42;32.45;;;25.70;96.10;;;;;;4211264;28;20040;-75
2022/01/22 12:21:39;;;;;;;44.08;32.90;;;25.60;96.00;;;;;;4212724;28;20063;-76
2022/01/22 12:23:48;;;;;;;43.35;33.25;;;25.60;96.80;;;;;;4210665;28;20100;-75
2022/01/22 12:25:53;;;;;;;43.15;31.95;;;25.50;97.10;;;;;;4211499;28;20068;-76
2022/01/22 12:27:57;;;;;;;44.45;32.70;;;25.50;97.70;;;;;;4211051;28;20047;-75
2022/01/22 12:30:02;;;;;;;46.10;33.25;;;25.60;97.40;;;;;;4211092;28;20164;-75
2022/01/22 12:32:18;;;;;;;42.10;32.03;;;25.40;97.60;;;;;;4210378;28;20139;-75
2022/01/22 12:34:55;;;;;;;44.45;32.25;;;25.60;97.60;;;;;;4202813;28;20468;-72
2022/01/22 12:37:17;;;;;;;47.97;33.95;;;25.70;97.30;;;;;;4192326;28;20044;-73
2022/01/22 12:39:28;;;;;;;46.47;33.58;;;25.60;97.70;;;;;;4198900;28;20051;-72
2022/01/22 12:41:50;;;;;;;46.25;34.42;;;25.40;98.20;;;;;;4200117;28;20058;-74
2022/01/22 12:46:30;;;;;;;45.17;33.50;;;25.30;98.60;;;;;;4203640;28;20081;-75
2022/01/22 12:48:38;;;;;;;49.80;34.03;;;25.40;98.50;;;;;;4186999;28;20726;-74
2022/01/22 12:50:43;;;;;;;43.15;32.42;;;25.40;98.30;;;;;;4204759;28;20044;-74
2022/01/22 12:52:49;;;;;;;42.58;32.88;;;25.40;98.10;;;;;;4209615;28;20623;-72
2022/01/22 12:54:58;;;;;;;39.90;32.05;;;25.40;98.20;;;;;;4206794;28;20052;-73
2022/01/22 12:57:24;;;;;;;40.28;31.75;;;25.30;98.60;;;;;;4203662;28;20131;-74
2022/01/22 12:59:32;;;;;;;39.00;31.27;;;25.40;98.30;;;;;;4204230;28;20048;-73
2022/01/22 13:01:38;;;;;;;44.17;31.20;;;25.50;98.20;;;;;;4186030;28;20123;-74
2022/01/22 13:03:44;;;;;;;44.03;31.58;;;25.50;98.30;;;;;;4204234;28;20032;-73
2022/01/22 13:05:50;;;;;;;43.92;31.25;;;25.60;98.40;;;;;;4203027;28;20051;-74
2022/01/22 13:08:01;;;;;;;47.00;33.38;;;25.60;98.20;;;;;;4202017;28;20055;-73
2022/01/22 13:10:18;;;;;;;43.50;32.00;;;25.70;98.60;;;;;;4203180;28;20136;-73
2022/01/22 13:12:25;;;;;;;44.55;33.22;;;25.80;98.70;;;;;;4204578;28;20414;-74
2022/01/22 13:14:31;;;;;;;40.78;33.33;;;25.90;98.80;;;;;;4206112;28;20040;-75
2022/01/22 13:16:35;;;;;;;43.22;32.72;;;26.00;98.80;;;;;;4204946;28;20125;-76
2022/01/22 13:18:41;;;;;;;42.55;32.88;;;26.00;98.80;;;;;;4186505;28;20029;-75
2022/01/22 13:20:48;;;;;;;42.63;33.15;;;26.00;99.00;;;;;;4184217;28;20338;-73
2022/01/22 13:22:53;;;;;;;46.38;33.65;;;25.90;99.10;;;;;;4205280;28;20067;-75
2022/01/22 13:25:13;;;;;;;43.60;34.33;;;25.60;99.50;;;;;;4205984;28;20052;-74
2022/01/22 13:27:19;;;;;;;39.72;33.17;;;25.40;99.90;;;;;;4206642;28;20093;-75
2022/01/22 13:29:41;;;;;;;43.42;33.47;;;25.00;99.90;;;;;;4204496;28;20067;-74
2022/01/22 13:32:07;;;;;;;45.28;34.53;;;24.90;99.90;;;;;;4203364;28;20052;-74
2022/01/22 13:34:26;;;;;;;42.47;33.33;;;24.90;99.90;;;;;;4202647;28;20589;-73
2022/01/22 13:45:25;;;;;;;46.13;35.15;;;24.80;99.90;;;;;;4206138;28;20055;-74
2022/01/22 13:49:49;;;;;;;41.90;34.50;;;24.90;99.90;;;;;;4205348;28;20087;-74
2022/01/22 13:51:59;;;;;;;43.22;34.10;;;25.10;99.90;;;;;;4206033;28;20090;-73
2022/01/22 13:54:04;;;;;;;45.83;35.80;;;24.90;99.90;;;;;;4204773;28;20054;-74
2022/01/22 13:56:12;;;;;;;45.35;35.97;;;24.80;99.90;;;;;;4205650;28;20075;-74
2022/01/22 13:58:18;;;;;;;44.75;33.60;;;24.80;99.90;;;;;;4204554;28;20056;-74
2022/01/22 14:00:24;;;;;;;46.97;36.63;;;24.90;99.90;;;;;;4203601;28;20051;-74
2022/01/22 14:05:08;;;;;;;43.70;35.95;;;24.70;99.90;;;;;;4203508;28;20056;-74
2022/01/22 14:07:40;;;;;;;48.97;36.05;;;24.80;99.90;;;;;;4204295;28;20070;-74
2022/01/22 14:10:05;;;;;;;46.35;36.33;;;24.90;99.90;;;;;;4203021;28;20067;-74